sensor_id;sensor_type;location;lat;lon;timestamp;pressure;altitude;pressure_sealevel;temperature;humidity
17855;BME280;9053;53.358;6.382;2023-07-20T00:00:41;101343.41;;;18.34;83.75
17855;BME280;9053;53.358;6.382;2023-07-20T00:03:12;101346.88;;;18.32;83.69
17855;BME280;9053;53.358;6.382;2023-07-20T00:05:44;101343.34;;;18.31;83.78
17855;BME280;9053;53.358;6.382;2023-07-20T00:08:17;101341.56;;;18.30;83.84
17855;BME280;9053;53.358;6.382;2023-07-20T00:10:47;101351.31;;;18.31;84.11
17855;BME280;9053;53.358;6.382;2023-07-20T00:13:17;101354.88;;;18.30;84.18
17855;BME280;9053;53.358;6.382;2023-07-20T00:15:48;101356.66;;;18.30;84.24
17855;BME280;9053;53.358;6.382;2023-07-20T00:18:18;101352.19;;;18.27;84.41
17855;BME280;9053;53.358;6.382;2023-07-20T00:20:48;101353.06;;;18.26;84.42
17855;BME280;9053;53.358;6.382;2023-07-20T00:23:20;101352.16;;;18.26;84.65
17855;BME280;9053;53.358;6.382;2023-07-20T00:25:51;101351.25;;;18.24;85.05
17855;BME280;9053;53.358;6.382;2023-07-20T00:28:21;101354.81;;;18.26;85.28
17855;BME280;9053;53.358;6.382;2023-07-20T00:30:51;101349.53;;;18.29;85.43
17855;BME280;9053;53.358;6.382;2023-07-20T00:33:21;101361.97;;;18.31;85.80
17855;BME280;9053;53.358;6.382;2023-07-20T00:35:50;101353.06;;;18.29;86.05
17855;BME280;9053;53.358;6.382;2023-07-20T00:38:24;101355.75;;;18.28;86.21
17855;BME280;9053;53.358;6.382;2023-07-20T00:40:55;101353.06;;;18.28;86.11
17855;BME280;9053;53.358;6.382;2023-07-20T00:43:24;101355.72;;;18.25;86.02
17855;BME280;9053;53.358;6.382;2023-07-20T00:45:55;101352.13;;;18.24;86.17
17855;BME280;9053;53.358;6.382;2023-07-20T00:48:25;101347.69;;;18.20;86.02
17855;BME280;9053;53.358;6.382;2023-07-20T00:50:55;101351.19;;;18.19;86.24
17855;BME280;9053;53.358;6.382;2023-07-20T00:53:29;101354.72;;;18.16;86.24
17855;BME280;9053;53.358;6.382;2023-07-20T00:56:00;101349.38;;;18.12;86.13
17855;BME280;9053;53.358;6.382;2023-07-20T00:58:30;101358.22;;;18.11;86.10
17855;BME280;9053;53.358;6.382;2023-07-20T01:01:00;101355.56;;;18.09;86.15
17855;BME280;9053;53.358;6.382;2023-07-20T01:03:31;101353.75;;;18.08;86.29
17855;BME280;9053;53.358;6.382;2023-07-20T01:06:09;101348.44;;;18.07;86.15
17855;BME280;9053;53.358;6.382;2023-07-20T01:08:55;101355.47;;;18.03;86.26
17855;BME280;9053;53.358;6.382;2023-07-20T01:11:33;101349.16;;;17.95;85.77
17855;BME280;9053;53.358;6.382;2023-07-20T01:14:06;101352.66;;;17.91;85.83
17855;BME280;9053;53.358;6.382;2023-07-20T01:16:36;101352.66;;;17.91;86.06
17855;BME280;9053;53.358;6.382;2023-07-20T01:19:06;101354.41;;;17.89;86.08
17855;BME280;9053;53.358;6.382;2023-07-20T01:21:42;101359.69;;;17.86;86.24
17855;BME280;9053;53.358;6.382;2023-07-20T01:24:42;101356.13;;;17.84;86.23
17855;BME280;9053;53.358;6.382;2023-07-20T01:27:38;101362.31;;;17.83;86.31
17855;BME280;9053;53.358;6.382;2023-07-20T01:30:25;101359.63;;;17.81;86.52
17855;BME280;9053;53.358;6.382;2023-07-20T01:32:58;101358.69;;;17.78;86.62
17855;BME280;9053;53.358;6.382;2023-07-20T01:35:30;101355.09;;;17.74;86.80
17855;BME280;9053;53.358;6.382;2023-07-20T01:38:01;101347.97;;;17.71;86.83
17855;BME280;9053;53.358;6.382;2023-07-20T01:40:32;101346.16;;;17.70;87.00
17855;BME280;9053;53.358;6.382;2023-07-20T01:43:02;101347.91;;;17.67;87.27
17855;BME280;9053;53.358;6.382;2023-07-20T01:45:32;101352.31;;;17.66;87.29
17855;BME280;9053;53.358;6.382;2023-07-20T01:48:05;101343.41;;;17.63;87.63
17855;BME280;9053;53.358;6.382;2023-07-20T01:50:35;101347.81;;;17.59;87.63
17855;BME280;9053;53.358;6.382;2023-07-20T01:53:06;101346.00;;;17.57;87.82
17855;BME280;9053;53.358;6.382;2023-07-20T01:55:37;101343.28;;;17.53;88.01
17855;BME280;9053;53.358;6.382;2023-07-20T01:58:07;101345.91;;;17.50;88.04
17855;BME280;9053;53.358;6.382;2023-07-20T02:00:37;101349.41;;;17.48;88.17
17855;BME280;9053;53.358;6.382;2023-07-20T02:03:10;101343.16;;;17.43;88.44
17855;BME280;9053;53.358;6.382;2023-07-20T02:05:42;101351.09;;;17.40;88.31
17855;BME280;9053;53.358;6.382;2023-07-20T02:08:12;101347.50;;;17.38;88.40
17855;BME280;9053;53.358;6.382;2023-07-20T02:10:45;101356.34;;;17.35;88.51
17855;BME280;9053;53.358;6.382;2023-07-20T02:13:15;101351.84;;;17.31;88.54
17855;BME280;9053;53.358;6.382;2023-07-20T02:15:45;101352.69;;;17.28;88.70
17855;BME280;9053;53.358;6.382;2023-07-20T02:18:18;101350.88;;;17.24;88.72
17855;BME280;9053;53.358;6.382;2023-07-20T02:20:48;101358.81;;;17.21;89.00
17855;BME280;9053;53.358;6.382;2023-07-20T02:23:18;101354.31;;;17.17;88.90
17855;BME280;9053;53.358;6.382;2023-07-20T02:25:48;101351.63;;;17.16;89.15
17855;BME280;9053;53.358;6.382;2023-07-20T02:28:18;101356.03;;;17.14;89.36
17855;BME280;9053;53.358;6.382;2023-07-20T02:30:48;101357.78;;;17.13;89.43
17855;BME280;9053;53.358;6.382;2023-07-20T02:33:21;101359.56;;;17.13;89.49
17855;BME280;9053;53.358;6.382;2023-07-20T02:35:51;101354.22;;;17.13;89.68
17855;BME280;9053;53.358;6.382;2023-07-20T02:38:21;101356.91;;;17.13;89.71
17855;BME280;9053;53.358;6.382;2023-07-20T02:40:50;101353.34;;;17.12;90.01
17855;BME280;9053;53.358;6.382;2023-07-20T02:43:20;101356.00;;;17.12;90.14
17855;BME280;9053;53.358;6.382;2023-07-20T02:45:50;101357.78;;;17.13;90.19
17855;BME280;9053;53.358;6.382;2023-07-20T02:48:23;101352.47;;;17.12;90.22
17855;BME280;9053;53.358;6.382;2023-07-20T02:50:53;101349.81;;;17.12;90.13
17855;BME280;9053;53.358;6.382;2023-07-20T02:53:24;101347.09;;;17.10;90.08
17855;BME280;9053;53.358;6.382;2023-07-20T02:55:55;101347.06;;;17.07;90.10
17855;BME280;9053;53.358;6.382;2023-07-20T02:58:25;101342.59;;;17.04;90.01
17855;BME280;9053;53.358;6.382;2023-07-20T03:00:54;101350.53;;;17.01;89.98
17855;BME280;9053;53.358;6.382;2023-07-20T03:03:27;101345.16;;;16.98;90.05
17855;BME280;9053;53.358;6.382;2023-07-20T03:05:57;101354.88;;;16.96;90.11
17855;BME280;9053;53.358;6.382;2023-07-20T03:08:27;101354.81;;;16.93;89.97
17855;BME280;9053;53.358;6.382;2023-07-20T03:10:57;101357.41;;;16.89;90.06
17855;BME280;9053;53.358;6.382;2023-07-20T03:13:27;101359.16;;;16.86;90.11
17855;BME280;9053;53.358;6.382;2023-07-20T03:15:58;101362.63;;;16.82;90.13
17855;BME280;9053;53.358;6.382;2023-07-20T03:18:30;101357.25;;;16.79;90.32
17855;BME280;9053;53.358;6.382;2023-07-20T03:21:00;101364.28;;;16.77;90.27
17855;BME280;9053;53.358;6.382;2023-07-20T03:23:30;101360.69;;;16.75;90.46
17855;BME280;9053;53.358;6.382;2023-07-20T03:26:00;101370.44;;;16.75;90.49
17855;BME280;9053;53.358;6.382;2023-07-20T03:28:30;101369.50;;;16.73;90.64
17855;BME280;9053;53.358;6.382;2023-07-20T03:31:00;101373.91;;;16.71;90.69
17855;BME280;9053;53.358;6.382;2023-07-20T03:33:34;101365.91;;;16.69;90.90
17855;BME280;9053;53.358;6.382;2023-07-20T03:36:05;101361.44;;;16.68;91.09
17855;BME280;9053;53.358;6.382;2023-07-20T03:38:37;101364.09;;;16.68;91.06
17855;BME280;9053;53.358;6.382;2023-07-20T03:41:07;101372.06;;;16.66;91.22
17855;BME280;9053;53.358;6.382;2023-07-20T03:43:38;101374.72;;;16.66;91.35
17855;BME280;9053;53.358;6.382;2023-07-20T03:46:09;101369.38;;;16.65;91.36
17855;BME280;9053;53.358;6.382;2023-07-20T03:48:42;101370.28;;;16.67;91.63
17855;BME280;9053;53.358;6.382;2023-07-20T03:51:12;101372.09;;;16.70;91.85
17855;BME280;9053;53.358;6.382;2023-07-20T03:53:41;101377.50;;;16.74;92.16
17855;BME280;9053;53.358;6.382;2023-07-20T03:56:13;101378.44;;;16.76;92.28
17855;BME280;9053;53.358;6.382;2023-07-20T03:58:43;101368.78;;;16.78;92.59
17855;BME280;9053;53.358;6.382;2023-07-20T04:01:12;101368.81;;;16.83;93.05
17855;BME280;9053;53.358;6.382;2023-07-20T04:03:46;101371.56;;;16.86;93.20
17855;BME280;9053;53.358;6.382;2023-07-20T04:06:17;101362.75;;;16.89;93.44
17855;BME280;9053;53.358;6.382;2023-07-20T04:08:47;101369.84;;;16.91;93.84
17855;BME280;9053;53.358;6.382;2023-07-20T04:11:17;101363.69;;;16.94;94.01
17855;BME280;9053;53.358;6.382;2023-07-20T04:13:47;101364.59;;;16.96;94.24
17855;BME280;9053;53.358;6.382;2023-07-20T04:16:18;101361.09;;;16.98;94.53
17855;BME280;9053;53.358;6.382;2023-07-20T04:18:51;101365.56;;;17.01;94.72
17855;BME280;9053;53.358;6.382;2023-07-20T04:21:21;101370.94;;;17.04;94.89
17855;BME280;9053;53.358;6.382;2023-07-20T04:23:51;101373.66;;;17.07;95.08
17855;BME280;9053;53.358;6.382;2023-07-20T04:26:21;101378.16;;;17.11;95.25
17855;BME280;9053;53.358;6.382;2023-07-20T04:28:51;101379.97;;;17.15;95.37
17855;BME280;9053;53.358;6.382;2023-07-20T04:31:21;101384.47;;;17.21;95.57
17855;BME280;9053;53.358;6.382;2023-07-20T04:33:53;101386.28;;;17.23;95.37
17855;BME280;9053;53.358;6.382;2023-07-20T04:36:23;101396.09;;;17.27;95.34
17855;BME280;9053;53.358;6.382;2023-07-20T04:38:53;101388.13;;;17.27;95.33
17855;BME280;9053;53.358;6.382;2023-07-20T04:41:25;101390.81;;;17.30;94.95
17855;BME280;9053;53.358;6.382;2023-07-20T04:43:55;101392.69;;;17.35;94.90
17855;BME280;9053;53.358;6.382;2023-07-20T04:46:25;101390.16;;;17.45;95.01
17855;BME280;9053;53.358;6.382;2023-07-20T04:48:57;101402.09;;;17.75;95.08
17855;BME280;9053;53.358;6.382;2023-07-20T04:51:28;101396.38;;;18.11;94.84
17855;BME280;9053;53.358;6.382;2023-07-20T04:53:58;101398.63;;;18.55;94.37
17855;BME280;9053;53.358;6.382;2023-07-20T04:56:28;101398.16;;;18.99;93.38
17855;BME280;9053;53.358;6.382;2023-07-20T04:58:58;101409.13;;;19.41;91.97
17855;BME280;9053;53.358;6.382;2023-07-20T05:01:28;101399.56;;;19.77;90.64
17855;BME280;9053;53.358;6.382;2023-07-20T05:04:02;101405.97;;;20.14;89.14
17855;BME280;9053;53.358;6.382;2023-07-20T05:06:35;101402.50;;;20.52;87.80
17855;BME280;9053;53.358;6.382;2023-07-20T05:09:05;101402.56;;;20.84;86.19
17855;BME280;9053;53.358;6.382;2023-07-20T05:11:36;101402.56;;;21.15;85.05
17855;BME280;9053;53.358;6.382;2023-07-20T05:14:06;101390.06;;;21.45;83.95
17855;BME280;9053;53.358;6.382;2023-07-20T05:16:36;101394.44;;;21.73;82.45
17855;BME280;9053;53.358;6.382;2023-07-20T05:19:08;101389.84;;;22.03;81.11
17855;BME280;9053;53.358;6.382;2023-07-20T05:21:38;101394.22;;;22.27;79.63
17855;BME280;9053;53.358;6.382;2023-07-20T05:24:08;101385.13;;;22.50;78.55
17855;BME280;9053;53.358;6.382;2023-07-20T05:26:38;101392.16;;;22.67;77.86
17855;BME280;9053;53.358;6.382;2023-07-20T05:29:08;101402.81;;;22.78;76.88
17855;BME280;9053;53.358;6.382;2023-07-20T05:31:38;101404.56;;;22.82;75.88
17855;BME280;9053;53.358;6.382;2023-07-20T05:34:11;101397.34;;;22.90;75.75
17855;BME280;9053;53.358;6.382;2023-07-20T05:36:41;101394.59;;;23.03;75.52
17855;BME280;9053;53.358;6.382;2023-07-20T05:39:10;101396.28;;;23.15;74.54
17855;BME280;9053;53.358;6.382;2023-07-20T05:41:40;101393.44;;;23.31;73.91
17855;BME280;9053;53.358;6.382;2023-07-20T05:44:11;101399.53;;;23.47;73.40
17855;BME280;9053;53.358;6.382;2023-07-20T05:46:41;101392.25;;;23.57;72.84
17855;BME280;9053;53.358;6.382;2023-07-20T05:49:25;101394.84;;;23.66;72.52
17855;BME280;9053;53.358;6.382;2023-07-20T05:51:55;101396.47;;;23.83;72.05
17855;BME280;9053;53.358;6.382;2023-07-20T05:54:25;101395.50;;;23.88;71.29
17855;BME280;9053;53.358;6.382;2023-07-20T05:56:55;101392.81;;;23.90;71.10
17855;BME280;9053;53.358;6.382;2023-07-20T05:59:27;101400.81;;;23.94;70.53
17855;BME280;9053;53.358;6.382;2023-07-20T06:01:58;101388.31;;;23.89;70.41
17855;BME280;9053;53.358;6.382;2023-07-20T06:04:31;101397.25;;;23.91;70.52
17855;BME280;9053;53.358;6.382;2023-07-20T06:07:00;101399.88;;;23.97;70.30
17855;BME280;9053;53.358;6.382;2023-07-20T06:09:30;101401.63;;;23.98;69.72
17855;BME280;9053;53.358;6.382;2023-07-20T06:12:00;101398.13;;;23.94;69.26
17855;BME280;9053;53.358;6.382;2023-07-20T06:14:30;101398.16;;;23.91;68.97
17855;BME280;9053;53.358;6.382;2023-07-20T06:17:00;101404.41;;;23.92;68.90
17855;BME280;9053;53.358;6.382;2023-07-20T06:19:33;101395.38;;;23.96;68.46
17855;BME280;9053;53.358;6.382;2023-07-20T06:22:03;101397.09;;;24.05;68.76
17855;BME280;9053;53.358;6.382;2023-07-20T06:24:33;101401.38;;;24.16;68.87
17855;BME280;9053;53.358;6.382;2023-07-20T06:27:04;101399.69;;;24.11;67.14
17855;BME280;9053;53.358;6.382;2023-07-20T06:29:34;101407.06;;;23.95;65.86
17855;BME280;9053;53.358;6.382;2023-07-20T06:32:05;101404.59;;;23.77;66.18
17855;BME280;9053;53.358;6.382;2023-07-20T06:34:38;101395.69;;;23.73;66.69
17855;BME280;9053;53.358;6.382;2023-07-20T06:37:08;101406.41;;;23.73;66.76
17855;BME280;9053;53.358;6.382;2023-07-20T06:39:38;101405.53;;;23.74;66.51
17855;BME280;9053;53.358;6.382;2023-07-20T06:42:10;101395.69;;;23.68;67.35
17855;BME280;9053;53.358;6.382;2023-07-20T06:44:40;101398.38;;;23.71;67.77
17855;BME280;9053;53.358;6.382;2023-07-20T06:47:11;101401.03;;;23.74;68.05
17855;BME280;9053;53.358;6.382;2023-07-20T06:49:44;101410.78;;;23.85;67.88
17855;BME280;9053;53.358;6.382;2023-07-20T06:52:15;101409.75;;;23.96;67.92
17855;BME280;9053;53.358;6.382;2023-07-20T06:54:45;101406.81;;;24.13;67.90
17855;BME280;9053;53.358;6.382;2023-07-20T06:57:34;101406.69;;;24.23;67.44
17855;BME280;9053;53.358;6.382;2023-07-20T07:00:06;101419.31;;;24.17;66.61
17855;BME280;9053;53.358;6.382;2023-07-20T07:02:36;101411.44;;;24.02;65.48
17855;BME280;9053;53.358;6.382;2023-07-20T07:05:15;101410.09;;;23.63;64.75
17855;BME280;9053;53.358;6.382;2023-07-20T07:07:47;101416.66;;;23.32;65.40
17855;BME280;9053;53.358;6.382;2023-07-20T07:10:18;101415.09;;;23.11;66.00
17855;BME280;9053;53.358;6.382;2023-07-20T07:12:48;101426.78;;;23.03;66.45
17855;BME280;9053;53.358;6.382;2023-07-20T07:15:18;101425.00;;;23.03;66.96
17855;BME280;9053;53.358;6.382;2023-07-20T07:17:48;101436.59;;;23.07;66.76
17855;BME280;9053;53.358;6.382;2023-07-20T07:20:20;101438.38;;;23.05;66.80
17855;BME280;9053;53.358;6.382;2023-07-20T07:22:51;101430.41;;;22.97;66.83
17855;BME280;9053;53.358;6.382;2023-07-20T07:25:22;101439.38;;;22.93;67.43
17855;BME280;9053;53.358;6.382;2023-07-20T07:27:53;101434.81;;;23.03;67.70
17855;BME280;9053;53.358;6.382;2023-07-20T07:30:24;101428.44;;;23.18;67.83
17855;BME280;9053;53.358;6.382;2023-07-20T07:32:54;101434.56;;;23.30;67.17
17855;BME280;9053;53.358;6.382;2023-07-20T07:35:27;101429.13;;;23.40;66.51
17855;BME280;9053;53.358;6.382;2023-07-20T07:37:56;101432.56;;;23.51;66.15
17855;BME280;9053;53.358;6.382;2023-07-20T07:40:46;101426.28;;;23.55;65.63
17855;BME280;9053;53.358;6.382;2023-07-20T07:43:16;101439.66;;;23.61;65.20
17855;BME280;9053;53.358;6.382;2023-07-20T07:45:46;101440.59;;;23.59;65.39
17855;BME280;9053;53.358;6.382;2023-07-20T07:48:16;101443.19;;;23.63;65.79
17855;BME280;9053;53.358;6.382;2023-07-20T07:50:50;101445.03;;;23.61;65.05
17855;BME280;9053;53.358;6.382;2023-07-20T07:53:22;101445.88;;;23.65;65.22
17855;BME280;9053;53.358;6.382;2023-07-20T07:55:53;101452.09;;;23.68;65.56
17855;BME280;9053;53.358;6.382;2023-07-20T07:58:22;101445.72;;;23.80;65.09
17855;BME280;9053;53.358;6.382;2023-07-20T08:00:52;101448.44;;;23.79;64.62
17855;BME280;9053;53.358;6.382;2023-07-20T08:03:22;101449.25;;;23.85;65.03
17855;BME280;9053;53.358;6.382;2023-07-20T08:05:56;101461.63;;;24.00;64.97
17855;BME280;9053;53.358;6.382;2023-07-20T08:08:26;101452.47;;;24.15;64.79
17855;BME280;9053;53.358;6.382;2023-07-20T08:10:58;101456.72;;;24.31;64.62
17855;BME280;9053;53.358;6.382;2023-07-20T08:13:33;101463.81;;;24.38;64.21
17855;BME280;9053;53.358;6.382;2023-07-20T08:16:03;101456.63;;;24.39;63.97
17855;BME280;9053;53.358;6.382;2023-07-20T08:18:33;101461.13;;;24.40;63.69
17855;BME280;9053;53.358;6.382;2023-07-20T08:21:06;101455.53;;;24.57;63.52
17855;BME280;9053;53.358;6.382;2023-07-20T08:23:36;101458.06;;;24.66;63.62
17855;BME280;9053;53.358;6.382;2023-07-20T08:26:07;101457.97;;;24.74;63.10
17855;BME280;9053;53.358;6.382;2023-07-20T08:28:37;101459.78;;;24.72;63.22
17855;BME280;9053;53.358;6.382;2023-07-20T08:31:07;101457.13;;;24.69;63.31
17855;BME280;9053;53.358;6.382;2023-07-20T08:33:37;101458.06;;;24.68;63.41
17855;BME280;9053;53.358;6.382;2023-07-20T08:36:09;101458.94;;;24.68;63.30
17855;BME280;9053;53.358;6.382;2023-07-20T08:38:39;101460.88;;;24.60;63.49
17855;BME280;9053;53.358;6.382;2023-07-20T08:41:09;101458.38;;;24.46;62.83
17855;BME280;9053;53.358;6.382;2023-07-20T08:43:42;101466.56;;;24.34;62.39
17855;BME280;9053;53.358;6.382;2023-07-20T08:46:14;101462.25;;;24.21;62.60
17855;BME280;9053;53.358;6.382;2023-07-20T08:48:44;101471.38;;;24.07;62.59
17855;BME280;9053;53.358;6.382;2023-07-20T08:51:18;101469.69;;;23.98;62.94
17855;BME280;9053;53.358;6.382;2023-07-20T08:53:51;101466.06;;;24.01;62.87
17855;BME280;9053;53.358;6.382;2023-07-20T08:56:24;101467.88;;;24.02;62.79
17855;BME280;9053;53.358;6.382;2023-07-20T08:58:54;101467.75;;;24.11;63.02
17855;BME280;9053;53.358;6.382;2023-07-20T09:01:24;101465.88;;;24.16;62.85
17855;BME280;9053;53.358;6.382;2023-07-20T09:03:56;101476.53;;;24.26;62.80
17855;BME280;9053;53.358;6.382;2023-07-20T09:06:29;101471.09;;;24.29;62.74
17855;BME280;9053;53.358;6.382;2023-07-20T09:08:59;101476.41;;;24.35;63.07
17855;BME280;9053;53.358;6.382;2023-07-20T09:11:29;101475.59;;;24.28;62.63
17855;BME280;9053;53.358;6.382;2023-07-20T09:14:03;101481.13;;;24.17;62.32
17855;BME280;9053;53.358;6.382;2023-07-20T09:16:46;101480.31;;;24.09;61.89
17855;BME280;9053;53.358;6.382;2023-07-20T09:19:17;101475.88;;;24.05;62.68
17855;BME280;9053;53.358;6.382;2023-07-20T09:21:51;101477.78;;;23.97;62.60
17855;BME280;9053;53.358;6.382;2023-07-20T09:24:22;101481.44;;;23.88;62.22
17855;BME280;9053;53.358;6.382;2023-07-20T09:26:52;101485.88;;;23.92;61.94
17855;BME280;9053;53.358;6.382;2023-07-20T09:29:22;101472.41;;;23.97;61.85
17855;BME280;9053;53.358;6.382;2023-07-20T09:31:59;101476.03;;;23.94;62.11
17855;BME280;9053;53.358;6.382;2023-07-20T09:34:30;101482.28;;;23.93;62.94
17855;BME280;9053;53.358;6.382;2023-07-20T09:37:05;101480.56;;;23.89;63.00
17855;BME280;9053;53.358;6.382;2023-07-20T09:39:42;101487.69;;;23.89;62.81
17855;BME280;9053;53.358;6.382;2023-07-20T09:42:15;101493.16;;;23.84;63.02
17855;BME280;9053;53.358;6.382;2023-07-20T09:44:48;101486.94;;;23.76;62.90
17855;BME280;9053;53.358;6.382;2023-07-20T09:47:21;101491.47;;;23.72;62.91
17855;BME280;9053;53.358;6.382;2023-07-20T09:49:58;101485.13;;;23.80;62.66
17855;BME280;9053;53.358;6.382;2023-07-20T09:52:35;101493.25;;;23.73;62.77
17855;BME280;9053;53.358;6.382;2023-07-20T09:55:10;101499.66;;;23.59;62.87
17855;BME280;9053;53.358;6.382;2023-07-20T09:57:40;101493.41;;;23.57;61.79
17855;BME280;9053;53.358;6.382;2023-07-20T10:00:11;101489.09;;;23.39;61.63
17855;BME280;9053;53.358;6.382;2023-07-20T10:02:46;101490.03;;;23.31;61.75
17855;BME280;9053;53.358;6.382;2023-07-20T10:05:17;101494.53;;;23.31;62.36
17855;BME280;9053;53.358;6.382;2023-07-20T10:07:52;101497.19;;;23.32;62.91
17855;BME280;9053;53.358;6.382;2023-07-20T10:10:25;101495.50;;;23.18;62.87
17855;BME280;9053;53.358;6.382;2023-07-20T10:12:57;101492.94;;;23.04;62.75
17855;BME280;9053;53.358;6.382;2023-07-20T10:15:30;101496.53;;;23.04;62.99
17855;BME280;9053;53.358;6.382;2023-07-20T10:18:06;101492.88;;;23.10;63.28
17855;BME280;9053;53.358;6.382;2023-07-20T10:20:39;101493.75;;;23.15;63.66
17855;BME280;9053;53.358;6.382;2023-07-20T10:23:16;101491.94;;;23.16;63.21
17855;BME280;9053;53.358;6.382;2023-07-20T10:25:46;101495.63;;;23.02;63.19
17855;BME280;9053;53.358;6.382;2023-07-20T10:28:17;101492.09;;;22.94;63.71
17855;BME280;9053;53.358;6.382;2023-07-20T10:30:48;101491.22;;;22.94;64.46
17855;BME280;9053;53.358;6.382;2023-07-20T10:33:19;101477.78;;;23.01;64.35
17855;BME280;9053;53.358;6.382;2023-07-20T10:35:54;101482.13;;;23.13;64.24
17855;BME280;9053;53.358;6.382;2023-07-20T10:38:42;101485.75;;;23.09;63.83
17855;BME280;9053;53.358;6.382;2023-07-20T10:41:16;101482.19;;;23.07;63.39
17855;BME280;9053;53.358;6.382;2023-07-20T10:43:48;101483.03;;;23.12;63.38
17855;BME280;9053;53.358;6.382;2023-07-20T10:46:33;101482.16;;;23.11;62.66
17855;BME280;9053;53.358;6.382;2023-07-20T10:49:04;101486.63;;;23.11;63.07
17855;BME280;9053;53.358;6.382;2023-07-20T10:51:39;101484.84;;;23.10;63.62
17855;BME280;9053;53.358;6.382;2023-07-20T10:54:46;101482.13;;;23.15;63.89
17855;BME280;9053;53.358;6.382;2023-07-20T10:57:25;101490.16;;;23.19;63.70
17855;BME280;9053;53.358;6.382;2023-07-20T11:00:10;101485.72;;;23.10;63.31
17855;BME280;9053;53.358;6.382;2023-07-20T11:02:45;101470.53;;;23.11;63.41
17855;BME280;9053;53.358;6.382;2023-07-20T11:05:39;101476.72;;;23.19;63.08
17855;BME280;9053;53.358;6.382;2023-07-20T11:08:11;101480.25;;;23.23;63.37
17855;BME280;9053;53.358;6.382;2023-07-20T11:10:45;101489.22;;;23.20;62.86
17855;BME280;9053;53.358;6.382;2023-07-20T11:13:19;101476.78;;;23.10;63.37
17855;BME280;9053;53.358;6.382;2023-07-20T11:16:02;101478.63;;;23.06;63.79
17855;BME280;9053;53.358;6.382;2023-07-20T11:18:34;101473.22;;;23.08;63.16
17855;BME280;9053;53.358;6.382;2023-07-20T11:21:10;101474.16;;;23.04;63.14
17855;BME280;9053;53.358;6.382;2023-07-20T11:23:40;101480.41;;;23.03;62.70
17855;BME280;9053;53.358;6.382;2023-07-20T11:26:14;101481.34;;;23.02;62.53
17855;BME280;9053;53.358;6.382;2023-07-20T11:28:48;101479.53;;;23.02;62.78
17855;BME280;9053;53.358;6.382;2023-07-20T11:31:20;101482.22;;;23.04;62.90
17855;BME280;9053;53.358;6.382;2023-07-20T11:33:50;101475.97;;;23.02;62.20
17855;BME280;9053;53.358;6.382;2023-07-20T11:36:20;101479.50;;;23.07;62.26
17855;BME280;9053;53.358;6.382;2023-07-20T11:38:53;101472.31;;;23.12;63.14
17855;BME280;9053;53.358;6.382;2023-07-20T11:41:26;101482.06;;;23.24;63.60
17855;BME280;9053;53.358;6.382;2023-07-20T11:43:57;101477.50;;;23.32;63.41
17855;BME280;9053;53.358;6.382;2023-07-20T11:46:27;101473.88;;;23.38;62.24
17855;BME280;9053;53.358;6.382;2023-07-20T11:48:58;101468.56;;;23.31;61.65
17855;BME280;9053;53.358;6.382;2023-07-20T11:51:30;101472.22;;;23.23;61.71
17855;BME280;9053;53.358;6.382;2023-07-20T11:54:01;101470.53;;;23.08;61.46
17855;BME280;9053;53.358;6.382;2023-07-20T11:56:34;101459.00;;;23.01;61.35
17855;BME280;9053;53.358;6.382;2023-07-20T11:59:06;101459.00;;;22.97;62.10
17855;BME280;9053;53.358;6.382;2023-07-20T12:01:36;101464.31;;;23.03;62.92
17855;BME280;9053;53.358;6.382;2023-07-20T12:04:06;101465.25;;;23.02;62.23
17855;BME280;9053;53.358;6.382;2023-07-20T12:06:36;101466.13;;;23.04;62.22
17855;BME280;9053;53.358;6.382;2023-07-20T12:09:13;101459.81;;;23.08;62.16
17855;BME280;9053;53.358;6.382;2023-07-20T12:11:49;101466.97;;;23.09;61.42
17855;BME280;9053;53.358;6.382;2023-07-20T12:14:19;101463.38;;;23.10;61.98
17855;BME280;9053;53.358;6.382;2023-07-20T12:16:53;101467.81;;;23.19;61.61
17855;BME280;9053;53.358;6.382;2023-07-20T12:19:25;101469.56;;;23.20;60.89
17855;BME280;9053;53.358;6.382;2023-07-20T12:21:57;101459.81;;;23.11;61.00
17855;BME280;9053;53.358;6.382;2023-07-20T12:24:29;101458.97;;;23.06;61.51
17855;BME280;9053;53.358;6.382;2023-07-20T12:27:03;101458.03;;;23.05;61.10
17855;BME280;9053;53.358;6.382;2023-07-20T12:29:33;101458.03;;;23.07;61.21
17855;BME280;9053;53.358;6.382;2023-07-20T12:32:05;101464.28;;;23.07;60.47
17855;BME280;9053;53.358;6.382;2023-07-20T12:34:35;101459.81;;;23.08;60.80
17855;BME280;9053;53.358;6.382;2023-07-20T12:37:06;101467.78;;;23.17;61.02
17855;BME280;9053;53.358;6.382;2023-07-20T12:39:38;101454.31;;;23.26;61.31
17855;BME280;9053;53.358;6.382;2023-07-20T12:42:17;101458.66;;;23.38;61.31
17855;BME280;9053;53.358;6.382;2023-07-20T12:44:48;101452.38;;;23.41;61.05
17855;BME280;9053;53.358;6.382;2023-07-20T12:47:18;101453.25;;;23.43;60.99
17855;BME280;9053;53.358;6.382;2023-07-20T12:49:49;101452.47;;;23.31;61.31
17855;BME280;9053;53.358;6.382;2023-07-20T12:52:22;101449.88;;;23.24;61.51
17855;BME280;9053;53.358;6.382;2023-07-20T12:54:53;101452.53;;;23.21;62.24
17855;BME280;9053;53.358;6.382;2023-07-20T12:57:26;101450.72;;;23.27;62.86
17855;BME280;9053;53.358;6.382;2023-07-20T12:59:56;101449.75;;;23.33;62.95
17855;BME280;9053;53.358;6.382;2023-07-20T13:02:27;101443.47;;;23.36;62.46
17855;BME280;9053;53.358;6.382;2023-07-20T13:04:57;101448.84;;;23.36;62.69
17855;BME280;9053;53.358;6.382;2023-07-20T13:07:32;101447.91;;;23.38;62.64
17855;BME280;9053;53.358;6.382;2023-07-20T13:10:06;101447.09;;;23.31;62.24
17855;BME280;9053;53.358;6.382;2023-07-20T13:12:39;101440.03;;;23.18;62.33
17855;BME280;9053;53.358;6.382;2023-07-20T13:15:10;101444.63;;;23.08;62.13
17855;BME280;9053;53.358;6.382;2023-07-20T13:17:40;101429.41;;;23.09;62.88
17855;BME280;9053;53.358;6.382;2023-07-20T13:20:10;101432.06;;;23.14;63.48
17855;BME280;9053;53.358;6.382;2023-07-20T13:22:43;101437.38;;;23.20;63.97
17855;BME280;9053;53.358;6.382;2023-07-20T13:25:14;101439.09;;;23.27;63.85